createdAt,value
2023-02-12T00:00:44.942Z,10.70
2023-02-12T00:03:13.746Z,11.33
2023-02-12T00:05:45.113Z,9.43
2023-02-12T00:08:14.285Z,10.30
2023-02-12T00:10:46.423Z,10.23
2023-02-12T00:13:15.658Z,8.23
2023-02-12T00:15:44.864Z,9.70
2023-02-12T00:18:13.109Z,9.30
2023-02-12T00:20:41.917Z,10.53
2023-02-12T00:23:11.613Z,9.53
2023-02-12T00:25:41.407Z,8.53
2023-02-12T00:28:10.751Z,10.20
2023-02-12T00:30:39.467Z,10.33
2023-02-12T00:33:07.762Z,10.43
2023-02-12T00:35:36.458Z,10.23
2023-02-12T00:38:05.764Z,10.80
2023-02-12T00:40:33.928Z,9.47
2023-02-12T00:43:02.581Z,8.63
2023-02-12T00:45:31.209Z,10.17
2023-02-12T00:47:59.919Z,9.97
2023-02-12T00:50:31.627Z,10.40
2023-02-12T00:52:58.785Z,11.47
2023-02-12T00:55:26.968Z,10.20
2023-02-12T00:57:55.648Z,11.57
2023-02-12T01:00:24.255Z,10.73
2023-02-12T01:02:52.415Z,10.97
2023-02-12T01:05:21.266Z,10.90
2023-02-12T01:07:53.375Z,10.50
2023-02-12T01:10:22.528Z,8.80
2023-02-12T01:12:51.431Z,10.00
2023-02-12T01:15:20.198Z,11.63
2023-02-12T01:17:48.951Z,10.10
2023-02-12T01:20:18.207Z,10.17
2023-02-12T01:22:46.439Z,11.03
2023-02-12T01:25:15.187Z,10.10
2023-02-12T01:27:43.889Z,10.93
2023-02-12T01:30:13.463Z,10.83
2023-02-12T01:32:41.566Z,12.00
2023-02-12T01:35:11.499Z,9.27
2023-02-12T01:37:40.499Z,10.43
2023-02-12T01:40:09.277Z,12.03
2023-02-12T01:42:38.169Z,9.57
2023-02-12T01:45:17.524Z,9.63
2023-02-12T01:47:46.903Z,11.17
2023-02-12T01:50:18.879Z,10.27
2023-02-12T01:52:48.469Z,10.50
2023-02-12T01:55:17.472Z,10.17
2023-02-12T01:57:47.412Z,10.03
2023-02-12T02:02:44.867Z,10.68
2023-02-12T02:05:14.466Z,9.17
2023-02-12T02:07:44.477Z,11.60
2023-02-12T02:10:12.480Z,11.07
2023-02-12T02:12:58.463Z,10.30
2023-02-12T02:15:28.934Z,11.00
2023-02-12T02:18:01.773Z,11.37
2023-02-12T02:20:31.376Z,11.27
2023-02-12T02:23:21.162Z,11.77
2023-02-12T02:26:00.115Z,12.97
2023-02-12T02:28:29.839Z,11.10
2023-02-12T02:30:59.669Z,11.27
2023-02-12T02:33:36.052Z,11.70
2023-02-12T02:36:05.579Z,11.53
2023-02-12T02:38:38.134Z,12.27
2023-02-12T02:41:08.257Z,12.97
2023-02-12T02:43:43.641Z,12.40
2023-02-12T02:46:13.750Z,13.93
2023-02-12T02:48:50.298Z,12.43
2023-02-12T02:51:22.566Z,12.17
2023-02-12T02:53:52.894Z,11.60
2023-02-12T02:56:23.008Z,11.37
2023-02-12T02:58:58.544Z,11.53
2023-02-12T03:01:29.518Z,13.50
2023-02-12T03:04:06.064Z,13.40
2023-02-12T03:06:36.174Z,11.97
2023-02-12T03:09:06.403Z,13.07
2023-02-12T03:11:35.133Z,13.93
2023-02-12T03:14:13.782Z,14.13
2023-02-12T03:16:53.057Z,13.70
2023-02-12T03:19:23.152Z,13.50
2023-02-12T03:21:53.068Z,13.67
2023-02-12T03:26:49.939Z,12.13
2023-02-12T03:29:17.902Z,13.17
2023-02-12T03:31:53.406Z,11.77
2023-02-12T03:34:29.549Z,12.10
2023-02-12T03:39:26.891Z,11.80
2023-02-12T03:42:05.278Z,11.30
2023-02-12T03:44:47.857Z,13.03
2023-02-12T03:47:21.013Z,12.67
2023-02-12T03:49:54.139Z,14.00
2023-02-12T03:52:23.091Z,10.97
2023-02-12T03:54:51.361Z,14.97
2023-02-12T03:57:23.352Z,14.30
2023-02-12T03:59:52.628Z,12.73
2023-02-12T04:02:21.602Z,13.53
2023-02-12T04:04:49.667Z,11.63
2023-02-12T04:07:18.954Z,11.83
2023-02-12T04:09:46.856Z,13.20
2023-02-12T04:12:26.189Z,12.53
2023-02-12T04:14:56.522Z,12.43
2023-02-12T04:17:36.773Z,13.57
2023-02-12T04:20:06.348Z,13.23
2023-02-12T04:22:39.562Z,13.53
2023-02-12T04:25:09.615Z,12.57
2023-02-12T04:27:45.570Z,13.23
2023-02-12T04:30:18.156Z,13.10
2023-02-12T04:32:47.842Z,15.53
2023-02-12T04:35:26.679Z,13.33
2023-02-12T04:37:59.609Z,13.67
2023-02-12T04:40:28.343Z,12.67
2023-02-12T04:42:56.713Z,17.50
2023-02-12T04:45:29.339Z,14.93
2023-02-12T04:47:57.791Z,14.83
2023-02-12T04:50:26.725Z,15.40
2023-02-12T04:52:55.457Z,15.27
2023-02-12T04:55:24.453Z,14.70
2023-02-12T04:57:52.364Z,15.33
2023-02-12T05:00:21.357Z,13.63
2023-02-12T05:02:50.304Z,14.93
2023-02-12T05:05:19.073Z,14.40
2023-02-12T05:07:47.583Z,15.57
2023-02-12T05:10:15.668Z,12.37
2023-02-12T05:12:44.027Z,13.23
2023-02-12T05:15:12.917Z,12.23
2023-02-12T05:17:41.600Z,13.90
2023-02-12T05:20:09.888Z,11.60
2023-02-12T05:22:38.071Z,12.43
2023-02-12T05:25:07.295Z,14.77
2023-02-12T05:27:36.006Z,13.17
2023-02-12T05:30:06.469Z,13.60
2023-02-12T05:32:35.252Z,13.17
2023-02-12T05:35:03.859Z,12.27
2023-02-12T05:37:32.641Z,11.20
2023-02-12T05:40:01.483Z,11.67
2023-02-12T05:42:30.418Z,9.83
2023-02-12T05:44:59.031Z,11.13
2023-02-12T05:47:27.361Z,10.80
2023-02-12T05:49:58.140Z,10.40
2023-02-12T05:52:26.026Z,9.90
2023-02-12T05:54:54.143Z,10.97
2023-02-12T05:57:22.158Z,11.43
2023-02-12T05:59:50.286Z,12.23
2023-02-12T06:02:19.283Z,10.80
2023-02-12T06:04:53.262Z,13.17
2023-02-12T06:07:21.580Z,12.47
2023-02-12T06:09:50.456Z,10.50
2023-02-12T06:12:18.980Z,13.20
2023-02-12T06:14:47.843Z,11.17
2023-02-12T06:17:15.916Z,12.13
2023-02-12T06:19:44.539Z,13.33
2023-02-12T06:22:13.677Z,11.70
2023-02-12T06:24:41.856Z,13.37
2023-02-12T06:27:10.668Z,12.57
2023-02-12T06:29:40.352Z,11.47
2023-02-12T06:32:09.443Z,11.83
2023-02-12T06:34:38.956Z,11.57
2023-02-12T06:37:07.537Z,12.50
2023-02-12T06:39:36.567Z,10.43
2023-02-12T06:42:05.649Z,10.47
2023-02-12T06:44:33.612Z,10.23
2023-02-12T06:47:02.154Z,10.27
2023-02-12T06:49:30.210Z,10.63
2023-02-12T06:52:01.106Z,10.40
2023-02-12T06:54:29.694Z,11.03
2023-02-12T06:56:58.472Z,12.17
2023-02-12T06:59:27.108Z,10.33
2023-02-12T07:01:55.217Z,10.10
2023-02-12T07:04:23.360Z,10.47
2023-02-12T07:06:52.134Z,11.43
2023-02-12T07:09:21.528Z,10.30
2023-02-12T07:11:49.824Z,11.77
2023-02-12T07:14:18.878Z,12.33
2023-02-12T07:16:48.082Z,10.87
2023-02-12T07:19:18.605Z,10.70
2023-02-12T07:21:47.032Z,10.27
2023-02-12T07:24:15.951Z,10.00
2023-02-12T07:26:43.971Z,12.43
2023-02-12T07:29:13.397Z,14.10
2023-02-12T07:31:41.451Z,11.77
2023-02-12T07:34:10.304Z,12.77
2023-02-12T07:36:38.992Z,12.10
2023-02-12T07:39:07.791Z,12.53
2023-02-12T07:41:37.474Z,11.93
2023-02-12T07:44:10.839Z,14.23
2023-02-12T07:46:40.910Z,13.73
2023-02-12T07:49:11.227Z,13.57
2023-02-12T07:51:39.356Z,14.93
2023-02-12T07:54:07.779Z,12.67
2023-02-12T07:56:38.322Z,12.50
2023-02-12T07:59:08.128Z,12.30
2023-02-12T08:01:38.406Z,10.90
2023-02-12T08:04:08.781Z,11.47
2023-02-12T08:06:39.036Z,13.50
2023-02-12T08:09:10.591Z,13.20
2023-02-12T08:11:39.491Z,13.50
2023-02-12T08:14:08.450Z,15.83
2023-02-12T08:16:41.045Z,15.67
2023-02-12T08:19:17.958Z,15.57
2023-02-12T08:21:39.611Z,13.80
2023-02-12T08:24:07.827Z,13.90
2023-02-12T08:26:38.395Z,13.03
2023-02-12T08:29:08.222Z,13.60
2023-02-12T08:31:38.115Z,14.67
2023-02-12T08:36:41.626Z,14.83
2023-02-12T08:39:11.149Z,14.13
2023-02-12T08:41:39.970Z,14.17
2023-02-12T08:44:08.540Z,14.30
2023-02-12T08:46:38.246Z,15.27
2023-02-12T08:49:10.617Z,15.83
2023-02-12T08:51:41.163Z,13.57
2023-02-12T08:54:11.175Z,15.00
2023-02-12T08:59:07.098Z,14.13
2023-02-12T09:01:38.539Z,15.43
2023-02-12T09:04:07.339Z,14.83
2023-02-12T09:06:35.902Z,14.00
2023-02-12T09:09:04.883Z,14.57
2023-02-12T09:11:35.104Z,15.47
2023-02-12T09:14:04.963Z,14.77
2023-02-12T09:16:35.018Z,16.40
2023-02-12T09:19:03.549Z,15.67
2023-02-12T09:21:32.171Z,14.37
2023-02-12T09:24:01.646Z,15.30
2023-02-12T09:26:30.131Z,15.37
2023-02-12T09:28:59.441Z,15.83
2023-02-12T09:31:31.813Z,16.50
2023-02-12T09:34:02.206Z,16.33
2023-02-12T09:36:30.874Z,16.00
2023-02-12T09:38:59.950Z,15.80
2023-02-12T09:41:39.041Z,18.20
2023-02-12T09:44:09.051Z,15.73
2023-02-12T09:46:38.527Z,15.10
2023-02-12T09:49:26.802Z,16.23
2023-02-12T09:51:56.590Z,17.33
2023-02-12T09:56:54.417Z,17.80
2023-02-12T09:59:25.533Z,16.57
2023-02-12T10:01:54.386Z,17.13
2023-02-12T10:04:24.064Z,17.77
2023-02-12T10:06:56.379Z,17.83
2023-02-12T10:09:29.731Z,17.40
2023-02-12T10:12:00.131Z,19.43
2023-02-12T10:14:33.656Z,17.13
2023-02-12T10:17:03.864Z,18.13
2023-02-12T10:19:33.474Z,17.47
2023-02-12T10:22:20.072Z,17.37
2023-02-12T10:24:53.284Z,16.73
2023-02-12T10:27:36.396Z,17.67
2023-02-12T10:30:05.762Z,17.43
2023-02-12T10:32:35.933Z,16.60
2023-02-12T10:35:08.103Z,17.73
2023-02-12T10:37:40.932Z,16.53
2023-02-12T10:40:17.132Z,18.10
2023-02-12T10:42:46.925Z,18.47
2023-02-12T10:45:22.601Z,19.50
2023-02-12T10:47:52.742Z,18.30
2023-02-12T10:50:28.857Z,16.67
2023-02-12T10:53:03.567Z,17.50
2023-02-12T10:55:33.713Z,20.37
2023-02-12T10:58:03.822Z,19.77
2023-02-12T11:00:33.660Z,18.90
2023-02-12T11:03:06.630Z,19.00
2023-02-12T11:05:36.814Z,18.37
2023-02-12T11:08:06.572Z,19.77
2023-02-12T11:10:36.121Z,18.87
2023-02-12T11:13:04.563Z,20.40
2023-02-12T11:15:37.229Z,20.30
2023-02-12T11:18:08.086Z,20.77
2023-02-12T11:20:43.982Z,20.37
2023-02-12T11:23:32.747Z,22.20
2023-02-12T11:26:02.952Z,20.57
2023-02-12T11:28:32.465Z,21.20
2023-02-12T11:33:36.298Z,20.32
2023-02-12T11:36:10.075Z,20.63
2023-02-12T11:38:39.800Z,22.43
2023-02-12T11:41:09.471Z,21.07
2023-02-12T11:43:40.019Z,20.50
2023-02-12T11:46:09.140Z,20.03
2023-02-12T11:48:39.821Z,21.17
2023-02-12T11:51:09.967Z,21.70
2023-02-12T11:53:41.162Z,22.60
2023-02-12T11:56:11.323Z,21.90
2023-02-12T11:58:39.596Z,21.47
2023-02-12T12:01:18.016Z,22.43
2023-02-12T12:04:04.926Z,18.17
2023-02-12T12:06:34.681Z,19.23
2023-02-12T12:11:32.220Z,17.60
2023-02-12T12:14:20.749Z,16.93
2023-02-12T12:17:08.649Z,19.83
2023-02-12T12:19:53.965Z,19.47
2023-02-12T12:22:23.680Z,19.93
2023-02-12T12:24:56.354Z,20.93
2023-02-12T12:27:28.326Z,18.57
2023-02-12T12:29:58.651Z,18.50
2023-02-12T12:32:27.413Z,18.93
2023-02-12T12:34:56.247Z,17.57
2023-02-12T12:37:29.333Z,17.97
2023-02-12T12:40:08.098Z,17.80
2023-02-12T12:42:52.898Z,18.80
2023-02-12T12:45:23.380Z,18.10
2023-02-12T12:48:02.337Z,18.37
2023-02-12T12:50:35.475Z,20.90
2023-02-12T12:53:18.210Z,20.87
2023-02-12T12:56:04.692Z,19.87
2023-02-12T12:58:43.660Z,20.50
2023-02-12T13:01:13.974Z,20.03
2023-02-12T13:04:00.854Z,22.27
2023-02-12T13:06:43.461Z,18.17
2023-02-12T13:09:25.869Z,19.47
2023-02-12T13:12:12.797Z,19.63
2023-02-12T13:14:42.980Z,23.13
2023-02-12T13:17:25.404Z,17.63
2023-02-12T13:20:01.366Z,18.53
2023-02-12T13:22:40.803Z,20.67
2023-02-12T13:25:28.791Z,20.77
2023-02-12T13:27:57.793Z,19.70
2023-02-12T13:30:27.538Z,19.27
2023-02-12T13:35:25.417Z,18.80
2023-02-12T13:37:55.345Z,18.83
2023-02-12T13:40:25.813Z,18.97
2023-02-12T13:42:56.251Z,18.17
2023-02-12T13:45:29.081Z,18.23
2023-02-12T13:48:01.615Z,17.37
2023-02-12T13:50:43.879Z,19.70
2023-02-12T13:53:23.308Z,23.00
2023-02-12T13:56:10.352Z,20.33
2023-02-12T13:58:40.942Z,19.07
2023-02-12T14:01:15.531Z,18.70
2023-02-12T14:03:44.560Z,20.37
2023-02-12T14:06:21.090Z,21.27
2023-02-12T14:08:50.840Z,21.83
2023-02-12T14:11:21.222Z,18.60
2023-02-12T14:13:54.366Z,20.23
2023-02-12T14:16:33.703Z,17.80
2023-02-12T14:19:20.853Z,19.03
2023-02-12T14:21:48.990Z,19.40
2023-02-12T14:24:36.104Z,18.60
2023-02-12T14:27:06.430Z,18.30
2023-02-12T14:29:34.508Z,19.20
2023-02-12T14:32:02.804Z,20.50
2023-02-12T14:34:39.143Z,20.80
2023-02-12T14:37:15.218Z,19.17
2023-02-12T14:39:43.379Z,20.43
2023-02-12T14:42:14.111Z,20.23
2023-02-12T14:44:47.513Z,20.93
2023-02-12T14:47:17.842Z,21.03
2023-02-12T14:49:50.787Z,21.90
2023-02-12T14:52:23.780Z,22.03
2023-02-12T14:54:59.388Z,23.30
2023-02-12T14:57:38.747Z,21.27
2023-02-12T15:00:08.700Z,21.27
2023-02-12T15:02:37.602Z,23.07
2023-02-12T15:05:07.526Z,22.57
2023-02-12T15:07:40.550Z,23.17
2023-02-12T15:10:11.433Z,22.97
2023-02-12T15:12:42.054Z,23.53
2023-02-12T15:15:29.083Z,24.50
2023-02-12T15:18:01.784Z,21.67
2023-02-12T15:20:40.992Z,24.23
2023-02-12T15:23:27.810Z,24.47
2023-02-12T15:25:57.182Z,23.07
2023-02-12T15:28:27.922Z,23.23
2023-02-12T15:30:58.336Z,24.77
2023-02-12T15:33:29.002Z,24.87
2023-02-12T15:35:57.978Z,26.27
2023-02-12T15:38:29.115Z,26.50
2023-02-12T15:40:58.891Z,24.27
2023-02-12T15:43:32.907Z,24.67
2023-02-12T15:46:02.182Z,25.20
2023-02-12T15:48:34.750Z,25.33
2023-02-12T15:51:04.661Z,22.53
2023-02-12T15:53:33.573Z,25.30
2023-02-12T15:56:03.178Z,25.20
2023-02-12T15:58:36.784Z,25.30
2023-02-12T16:01:06.704Z,25.93
2023-02-12T16:03:39.882Z,25.47
2023-02-12T16:06:14.609Z,26.77
2023-02-12T16:08:44.840Z,26.80
2023-02-12T16:11:15.781Z,26.87
2023-02-12T16:13:45.361Z,26.37
2023-02-12T16:16:15.962Z,26.10
2023-02-12T16:18:44.698Z,27.80
2023-02-12T16:21:14.970Z,26.33
2023-02-12T16:23:48.880Z,26.97
2023-02-12T16:26:19.176Z,28.77
2023-02-12T16:28:49.352Z,32.03
2023-02-12T16:31:18.725Z,29.00
2023-02-12T16:33:49.838Z,31.13
2023-02-12T16:36:25.937Z,28.70
2023-02-12T16:39:02.828Z,27.90
2023-02-12T16:41:33.760Z,29.23
2023-02-12T16:44:05.547Z,25.97
2023-02-12T16:46:39.352Z,29.37
2023-02-12T16:49:09.062Z,31.53
2023-02-12T16:51:38.381Z,29.47
2023-02-12T16:54:08.602Z,32.43
2023-02-12T16:56:42.652Z,28.87
2023-02-12T16:59:12.034Z,26.67
2023-02-12T17:01:41.337Z,29.63
2023-02-12T17:04:09.929Z,29.90
2023-02-12T17:06:39.358Z,30.40
2023-02-12T17:09:08.185Z,29.93
2023-02-12T17:11:38.610Z,28.30
2023-02-12T17:14:09.477Z,32.60
2023-02-12T17:16:38.699Z,31.73
2023-02-12T17:19:07.743Z,44.10
2023-02-12T17:21:40.875Z,38.33
2023-02-12T17:24:19.935Z,30.67
2023-02-12T17:26:50.611Z,36.13
2023-02-12T17:29:20.429Z,34.47
2023-02-12T17:34:18.001Z,32.90
2023-02-12T17:36:46.366Z,31.90
2023-02-12T17:39:16.243Z,42.30
2023-02-12T17:44:14.060Z,32.83
2023-02-12T17:46:42.971Z,35.60
2023-02-12T17:49:11.535Z,36.00
2023-02-12T17:51:40.343Z,32.67
2023-02-12T17:54:08.754Z,33.40
2023-02-12T17:56:38.634Z,34.97
2023-02-12T18:01:36.369Z,32.67
2023-02-12T18:04:04.865Z,34.73
2023-02-12T18:06:33.993Z,33.70
2023-02-12T18:09:05.691Z,33.77
2023-02-12T18:11:34.698Z,34.07
2023-02-12T18:14:03.645Z,35.20
2023-02-12T18:16:33.548Z,38.37
2023-02-12T18:19:04.488Z,34.77
2023-02-12T18:21:34.597Z,32.73
2023-02-12T18:24:03.176Z,36.80
2023-02-12T18:26:31.789Z,35.10
2023-02-12T18:29:00.653Z,37.87
2023-02-12T18:31:31.392Z,39.63
2023-02-12T18:34:00.116Z,42.47
2023-02-12T18:36:29.595Z,39.83
2023-02-12T18:38:58.676Z,36.63
2023-02-12T18:41:29.749Z,38.93
2023-02-12T18:43:59.131Z,38.13
2023-02-12T18:46:29.076Z,38.77
2023-02-12T18:48:58.400Z,41.20
2023-02-12T18:51:27.969Z,39.47
2023-02-12T18:53:57.618Z,36.00
2023-02-12T18:56:25.949Z,36.90
2023-02-12T18:58:57.726Z,35.50
2023-02-12T19:01:26.611Z,37.47
2023-02-12T19:03:57.227Z,40.70
2023-02-12T19:06:25.940Z,38.93
2023-02-12T19:09:02.001Z,39.87
2023-02-12T19:13:58.201Z,37.38
2023-02-12T19:16:27.386Z,37.57
2023-02-12T19:18:58.472Z,38.73
2023-02-12T19:21:28.286Z,38.70
2023-02-12T19:23:58.177Z,37.33
2023-02-12T19:26:28.561Z,37.83
2023-02-12T19:28:59.146Z,36.80
2023-02-12T19:31:29.432Z,37.43
2023-02-12T19:33:59.982Z,37.60
2023-02-12T19:36:30.245Z,35.90
2023-02-12T19:38:59.102Z,37.27
2023-02-12T19:41:27.882Z,37.70
2023-02-12T19:43:59.031Z,37.37
2023-02-12T19:46:28.423Z,37.57
2023-02-12T19:48:58.251Z,37.80
2023-02-12T19:51:26.822Z,37.37
2023-02-12T19:53:56.861Z,35.47
2023-02-12T19:56:25.544Z,35.87
2023-02-12T19:58:54.737Z,39.53
2023-02-12T20:01:23.037Z,41.90
2023-02-12T20:03:52.405Z,40.60
2023-02-12T20:06:21.948Z,38.10
2023-02-12T20:08:51.321Z,38.20
2023-02-12T20:11:21.551Z,38.70
2023-02-12T20:13:50.565Z,36.03
2023-02-12T20:16:20.829Z,37.53
2023-02-12T20:18:50.860Z,35.70
2023-02-12T20:21:21.305Z,34.50
2023-02-12T20:23:50.206Z,33.87
2023-02-12T20:26:20.473Z,34.73
2023-02-12T20:28:49.725Z,34.67
2023-02-12T20:31:20.150Z,36.03
2023-02-12T20:33:49.566Z,33.47
2023-02-12T20:36:17.826Z,34.97
2023-02-12T20:38:46.728Z,33.03
2023-02-12T20:41:15.209Z,37.03
2023-02-12T20:43:43.676Z,36.97
2023-02-12T20:46:14.046Z,32.57
2023-02-12T20:48:43.205Z,35.23
2023-02-12T20:51:13.519Z,39.53
2023-02-12T20:53:42.350Z,40.97
2023-02-12T20:56:13.872Z,38.50
2023-02-12T20:58:45.845Z,39.23
2023-02-12T21:01:17.283Z,38.97
2023-02-12T21:03:46.595Z,36.30
2023-02-12T21:06:14.921Z,37.70
2023-02-12T21:08:43.965Z,36.73
2023-02-12T21:11:15.349Z,32.83
2023-02-12T21:13:50.421Z,33.63
2023-02-12T21:16:26.937Z,35.83
2023-02-12T21:18:55.809Z,34.33
2023-02-12T21:21:26.445Z,36.80
2023-02-12T21:23:56.893Z,32.30
2023-02-12T21:26:26.356Z,39.17
2023-02-12T21:28:57.002Z,35.73
2023-02-12T21:31:27.383Z,36.80
2023-02-12T21:33:57.063Z,35.40
2023-02-12T21:36:26.929Z,36.73
2023-02-12T21:41:25.066Z,33.73
2023-02-12T21:44:01.167Z,38.13
2023-02-12T21:46:31.725Z,39.73
2023-02-12T21:49:01.275Z,38.30
2023-02-12T21:51:31.510Z,39.97
2023-02-12T21:54:01.466Z,39.07
2023-02-12T21:58:58.579Z,35.40
2023-02-12T22:01:28.738Z,34.50
2023-02-12T22:03:57.522Z,32.17
2023-02-12T22:06:27.067Z,33.67
2023-02-12T22:08:56.711Z,35.17
2023-02-12T22:11:25.965Z,36.77
2023-02-12T22:13:54.479Z,36.67
2023-02-12T22:16:27.454Z,38.83
2023-02-12T22:18:57.838Z,38.53
2023-02-12T22:21:27.964Z,35.63
2023-02-12T22:23:56.980Z,35.03
2023-02-12T22:26:27.481Z,34.63
2023-02-12T22:29:06.423Z,39.07
2023-02-12T22:31:36.809Z,35.13
2023-02-12T22:34:07.612Z,33.63
2023-02-12T22:36:36.882Z,36.20
2023-02-12T22:39:05.693Z,30.40
2023-02-12T22:41:34.751Z,34.27
2023-02-12T22:44:05.121Z,37.77
2023-02-12T22:46:33.547Z,30.07
2023-02-12T22:49:01.892Z,37.27
2023-02-12T22:51:31.453Z,38.53
2023-02-12T22:53:59.982Z,36.57
2023-02-12T22:56:28.534Z,34.37
2023-02-12T22:58:58.021Z,34.30
2023-02-12T23:01:26.194Z,35.67
2023-02-12T23:03:55.616Z,35.13
2023-02-12T23:06:27.033Z,35.03
2023-02-12T23:08:56.135Z,36.00
2023-02-12T23:11:25.571Z,36.87
2023-02-12T23:16:22.902Z,30.80
2023-02-12T23:18:53.236Z,30.00
2023-02-12T23:21:21.934Z,34.83
2023-02-12T23:23:51.139Z,36.80
2023-02-12T23:26:20.653Z,35.63
2023-02-12T23:28:50.185Z,34.73
2023-02-12T23:31:18.635Z,34.07
2023-02-12T23:33:46.792Z,32.30
2023-02-12T23:36:16.234Z,36.30
2023-02-12T23:38:44.336Z,32.23
2023-02-12T23:41:13.301Z,37.47
2023-02-12T23:43:42.242Z,36.30
2023-02-12T23:46:11.491Z,34.80
2023-02-12T23:48:40.184Z,32.93
2023-02-12T23:51:08.774Z,38.20
2023-02-12T23:53:37.121Z,37.57
2023-02-12T23:56:06.074Z,39.30
2023-02-12T23:58:35.527Z,32.13
